sensor_id;sensor_type;location;lat;lon;timestamp;P1;durP1;ratioP1;P2;durP2;ratioP2
54145;SDS011;65909;49.422;7.738;2023-02-15T00:01:23;32.42;;;13.05;;
54145;SDS011;65909;49.422;7.738;2023-02-15T00:03:48;35.70;;;13.48;;
54145;SDS011;65909;49.422;7.738;2023-02-15T00:06:14;36.42;;;14.65;;
54145;SDS011;65909;49.422;7.738;2023-02-15T00:08:40;33.92;;;13.52;;
54145;SDS011;65909;49.422;7.738;2023-02-15T00:11:06;35.58;;;13.70;;
54145;SDS011;65909;49.422;7.738;2023-02-15T00:13:36;31.42;;;12.82;;
54145;SDS011;65909;49.422;7.738;2023-02-15T00:16:04;35.90;;;13.40;;
54145;SDS011;65909;49.422;7.738;2023-02-15T00:18:32;30.63;;;13.02;;
54145;SDS011;65909;49.422;7.738;2023-02-15T00:20:58;31.58;;;13.73;;
54145;SDS011;65909;49.422;7.738;2023-02-15T00:23:27;28.48;;;12.50;;
54145;SDS011;65909;49.422;7.738;2023-02-15T00:26:02;29.13;;;13.77;;
54145;SDS011;65909;49.422;7.738;2023-02-15T00:28:28;38.20;;;15.63;;
54145;SDS011;65909;49.422;7.738;2023-02-15T00:30:56;28.08;;;13.43;;
54145;SDS011;65909;49.422;7.738;2023-02-15T00:33:27;36.03;;;14.63;;
54145;SDS011;65909;49.422;7.738;2023-02-15T00:35:57;33.75;;;13.75;;
54145;SDS011;65909;49.422;7.738;2023-02-15T00:38:22;33.58;;;13.05;;
54145;SDS011;65909;49.422;7.738;2023-02-15T00:40:57;18.48;;;10.20;;
54145;SDS011;65909;49.422;7.738;2023-02-15T00:43:25;27.88;;;13.07;;
54145;SDS011;65909;49.422;7.738;2023-02-15T00:45:51;27.20;;;13.52;;
54145;SDS011;65909;49.422;7.738;2023-02-15T00:48:17;31.83;;;13.25;;
54145;SDS011;65909;49.422;7.738;2023-02-15T00:50:49;34.40;;;13.40;;
54145;SDS011;65909;49.422;7.738;2023-02-15T00:53:16;30.48;;;13.05;;
54145;SDS011;65909;49.422;7.738;2023-02-15T00:55:42;32.38;;;13.45;;
54145;SDS011;65909;49.422;7.738;2023-02-15T00:58:08;27.45;;;13.32;;
54145;SDS011;65909;49.422;7.738;2023-02-15T01:00:34;28.75;;;12.57;;
54145;SDS011;65909;49.422;7.738;2023-02-15T01:03:00;30.80;;;13.63;;
54145;SDS011;65909;49.422;7.738;2023-02-15T01:05:25;27.95;;;12.88;;
54145;SDS011;65909;49.422;7.738;2023-02-15T01:07:51;28.40;;;12.05;;
54145;SDS011;65909;49.422;7.738;2023-02-15T01:10:16;33.20;;;14.10;;
54145;SDS011;65909;49.422;7.738;2023-02-15T01:12:42;29.10;;;13.48;;
54145;SDS011;65909;49.422;7.738;2023-02-15T01:15:07;26.45;;;11.35;;
54145;SDS011;65909;49.422;7.738;2023-02-15T01:17:33;32.75;;;13.93;;
54145;SDS011;65909;49.422;7.738;2023-02-15T01:19:58;34.53;;;14.25;;
54145;SDS011;65909;49.422;7.738;2023-02-15T01:22:25;27.55;;;12.63;;
54145;SDS011;65909;49.422;7.738;2023-02-15T01:24:50;33.78;;;15.02;;
54145;SDS011;65909;49.422;7.738;2023-02-15T01:27:16;33.83;;;12.90;;
54145;SDS011;65909;49.422;7.738;2023-02-15T01:29:41;25.02;;;11.40;;
54145;SDS011;65909;49.422;7.738;2023-02-15T01:32:06;30.13;;;13.25;;
54145;SDS011;65909;49.422;7.738;2023-02-15T01:34:32;33.92;;;14.48;;
54145;SDS011;65909;49.422;7.738;2023-02-15T01:36:57;27.60;;;14.73;;
54145;SDS011;65909;49.422;7.738;2023-02-15T01:39:22;32.53;;;14.90;;
54145;SDS011;65909;49.422;7.738;2023-02-15T01:41:48;32.50;;;15.13;;
54145;SDS011;65909;49.422;7.738;2023-02-15T01:47:39;37.60;;;16.75;;
54145;SDS011;65909;49.422;7.738;2023-02-15T01:50:25;32.67;;;14.73;;
54145;SDS011;65909;49.422;7.738;2023-02-15T01:53:02;40.42;;;14.95;;
54145;SDS011;65909;49.422;7.738;2023-02-15T01:55:42;34.88;;;16.10;;
54145;SDS011;65909;49.422;7.738;2023-02-15T01:58:15;35.08;;;14.95;;
54145;SDS011;65909;49.422;7.738;2023-02-15T02:00:41;36.20;;;14.77;;
54145;SDS011;65909;49.422;7.738;2023-02-15T02:03:08;32.83;;;15.70;;
54145;SDS011;65909;49.422;7.738;2023-02-15T02:05:33;33.22;;;14.40;;
54145;SDS011;65909;49.422;7.738;2023-02-15T02:07:59;34.60;;;15.25;;
54145;SDS011;65909;49.422;7.738;2023-02-15T02:10:27;37.17;;;15.45;;
54145;SDS011;65909;49.422;7.738;2023-02-15T02:12:54;30.58;;;14.40;;
54145;SDS011;65909;49.422;7.738;2023-02-15T02:15:24;30.33;;;13.68;;
54145;SDS011;65909;49.422;7.738;2023-02-15T02:21:29;35.42;;;15.63;;
54145;SDS011;65909;49.422;7.738;2023-02-15T02:23:58;36.65;;;16.15;;
54145;SDS011;65909;49.422;7.738;2023-02-15T02:27:05;35.55;;;13.70;;
54145;SDS011;65909;49.422;7.738;2023-02-15T02:32:50;31.20;;;14.55;;
54145;SDS011;65909;49.422;7.738;2023-02-15T02:35:34;35.13;;;15.02;;
54145;SDS011;65909;49.422;7.738;2023-02-15T02:41:12;33.38;;;13.95;;
54145;SDS011;65909;49.422;7.738;2023-02-15T02:43:54;31.67;;;13.68;;
54145;SDS011;65909;49.422;7.738;2023-02-15T02:49:34;29.65;;;15.05;;
54145;SDS011;65909;49.422;7.738;2023-02-15T02:52:03;37.53;;;13.02;;
54145;SDS011;65909;49.422;7.738;2023-02-15T02:54:31;36.83;;;16.92;;
54145;SDS011;65909;49.422;7.738;2023-02-15T02:57:00;36.47;;;16.20;;
54145;SDS011;65909;49.422;7.738;2023-02-15T02:59:33;32.78;;;14.95;;
54145;SDS011;65909;49.422;7.738;2023-02-15T03:02:08;32.63;;;13.02;;
54145;SDS011;65909;49.422;7.738;2023-02-15T03:04:38;32.08;;;13.82;;
54145;SDS011;65909;49.422;7.738;2023-02-15T03:07:10;39.15;;;14.88;;
54145;SDS011;65909;49.422;7.738;2023-02-15T03:09:41;38.35;;;18.27;;
54145;SDS011;65909;49.422;7.738;2023-02-15T03:12:11;42.78;;;17.83;;
54145;SDS011;65909;49.422;7.738;2023-02-15T03:14:40;38.70;;;15.38;;
54145;SDS011;65909;49.422;7.738;2023-02-15T03:17:08;37.15;;;15.60;;
54145;SDS011;65909;49.422;7.738;2023-02-15T03:19:36;41.25;;;17.55;;
54145;SDS011;65909;49.422;7.738;2023-02-15T03:22:04;42.50;;;17.77;;
54145;SDS011;65909;49.422;7.738;2023-02-15T03:24:37;40.53;;;16.83;;
54145;SDS011;65909;49.422;7.738;2023-02-15T03:27:20;44.33;;;16.45;;
54145;SDS011;65909;49.422;7.738;2023-02-15T03:29:51;42.33;;;18.00;;
54145;SDS011;65909;49.422;7.738;2023-02-15T03:32:20;36.65;;;16.33;;
54145;SDS011;65909;49.422;7.738;2023-02-15T03:34:48;39.63;;;15.40;;
54145;SDS011;65909;49.422;7.738;2023-02-15T03:37:15;32.90;;;15.13;;
54145;SDS011;65909;49.422;7.738;2023-02-15T03:39:45;40.38;;;16.95;;
54145;SDS011;65909;49.422;7.738;2023-02-15T03:42:19;41.97;;;16.80;;
54145;SDS011;65909;49.422;7.738;2023-02-15T03:44:57;38.03;;;17.65;;
54145;SDS011;65909;49.422;7.738;2023-02-15T03:50:22;40.53;;;15.88;;
54145;SDS011;65909;49.422;7.738;2023-02-15T03:53:11;36.95;;;15.02;;
54145;SDS011;65909;49.422;7.738;2023-02-15T03:55:40;37.10;;;16.55;;
54145;SDS011;65909;49.422;7.738;2023-02-15T03:58:05;41.40;;;15.45;;
54145;SDS011;65909;49.422;7.738;2023-02-15T04:01:00;39.33;;;16.38;;
54145;SDS011;65909;49.422;7.738;2023-02-15T04:04:39;37.38;;;17.00;;
54145;SDS011;65909;49.422;7.738;2023-02-15T04:06:42;40.95;;;16.42;;
54145;SDS011;65909;49.422;7.738;2023-02-15T04:09:08;42.83;;;16.73;;
54145;SDS011;65909;49.422;7.738;2023-02-15T04:11:52;37.13;;;15.85;;
54145;SDS011;65909;49.422;7.738;2023-02-15T04:14:17;34.90;;;15.80;;
54145;SDS011;65909;49.422;7.738;2023-02-15T04:17:06;41.25;;;17.42;;
54145;SDS011;65909;49.422;7.738;2023-02-15T04:19:33;44.28;;;18.83;;
54145;SDS011;65909;49.422;7.738;2023-02-15T04:22:17;42.97;;;15.20;;
54145;SDS011;65909;49.422;7.738;2023-02-15T04:25:01;37.90;;;15.30;;
54145;SDS011;65909;49.422;7.738;2023-02-15T04:27:45;40.25;;;15.88;;
54145;SDS011;65909;49.422;7.738;2023-02-15T04:30:13;31.70;;;12.43;;
54145;SDS011;65909;49.422;7.738;2023-02-15T04:32:40;43.25;;;16.80;;
54145;SDS011;65909;49.422;7.738;2023-02-15T04:35:05;42.30;;;15.63;;
54145;SDS011;65909;49.422;7.738;2023-02-15T04:37:32;46.10;;;18.23;;
54145;SDS011;65909;49.422;7.738;2023-02-15T04:39:57;43.90;;;17.17;;
54145;SDS011;65909;49.422;7.738;2023-02-15T04:42:26;45.95;;;20.65;;
54145;SDS011;65909;49.422;7.738;2023-02-15T04:44:52;38.60;;;15.35;;
54145;SDS011;65909;49.422;7.738;2023-02-15T04:47:17;53.33;;;20.95;;
54145;SDS011;65909;49.422;7.738;2023-02-15T04:49:43;46.53;;;18.38;;
54145;SDS011;65909;49.422;7.738;2023-02-15T04:52:08;43.17;;;17.45;;
54145;SDS011;65909;49.422;7.738;2023-02-15T04:54:34;49.13;;;20.13;;
54145;SDS011;65909;49.422;7.738;2023-02-15T04:56:59;53.75;;;17.48;;
54145;SDS011;65909;49.422;7.738;2023-02-15T04:59:24;50.47;;;21.65;;
54145;SDS011;65909;49.422;7.738;2023-02-15T05:01:50;42.22;;;17.55;;
54145;SDS011;65909;49.422;7.738;2023-02-15T05:04:15;47.85;;;19.20;;
54145;SDS011;65909;49.422;7.738;2023-02-15T05:06:40;52.42;;;21.33;;
54145;SDS011;65909;49.422;7.738;2023-02-15T05:09:06;47.97;;;20.00;;
54145;SDS011;65909;49.422;7.738;2023-02-15T05:11:31;58.60;;;22.23;;
54145;SDS011;65909;49.422;7.738;2023-02-15T05:13:56;48.70;;;20.73;;
54145;SDS011;65909;49.422;7.738;2023-02-15T05:16:22;42.90;;;17.10;;
54145;SDS011;65909;49.422;7.738;2023-02-15T05:18:47;58.10;;;19.60;;
54145;SDS011;65909;49.422;7.738;2023-02-15T05:21:12;47.38;;;16.67;;
54145;SDS011;65909;49.422;7.738;2023-02-15T05:23:38;50.25;;;18.52;;
54145;SDS011;65909;49.422;7.738;2023-02-15T05:26:04;48.15;;;18.38;;
54145;SDS011;65909;49.422;7.738;2023-02-15T05:28:47;48.50;;;19.10;;
54145;SDS011;65909;49.422;7.738;2023-02-15T05:31:14;53.40;;;19.27;;
54145;SDS011;65909;49.422;7.738;2023-02-15T05:33:41;52.17;;;19.85;;
54145;SDS011;65909;49.422;7.738;2023-02-15T05:36:07;53.00;;;18.60;;
54145;SDS011;65909;49.422;7.738;2023-02-15T05:38:33;47.33;;;17.85;;
54145;SDS011;65909;49.422;7.738;2023-02-15T05:40:59;57.53;;;20.48;;
54145;SDS011;65909;49.422;7.738;2023-02-15T05:43:25;47.67;;;18.88;;
54145;SDS011;65909;49.422;7.738;2023-02-15T05:45:51;50.00;;;18.50;;
54145;SDS011;65909;49.422;7.738;2023-02-15T05:48:19;44.72;;;16.85;;
54145;SDS011;65909;49.422;7.738;2023-02-15T05:50:45;64.20;;;19.45;;
54145;SDS011;65909;49.422;7.738;2023-02-15T05:53:11;57.15;;;19.08;;
54145;SDS011;65909;49.422;7.738;2023-02-15T05:55:37;59.38;;;19.50;;
54145;SDS011;65909;49.422;7.738;2023-02-15T05:58:03;50.05;;;19.55;;
54145;SDS011;65909;49.422;7.738;2023-02-15T06:00:29;58.40;;;19.02;;
54145;SDS011;65909;49.422;7.738;2023-02-15T06:02:54;52.78;;;15.27;;
54145;SDS011;65909;49.422;7.738;2023-02-15T06:05:20;60.22;;;19.17;;
54145;SDS011;65909;49.422;7.738;2023-02-15T06:07:45;62.47;;;21.42;;
54145;SDS011;65909;49.422;7.738;2023-02-15T06:10:10;52.78;;;19.05;;
54145;SDS011;65909;49.422;7.738;2023-02-15T06:12:36;60.30;;;22.55;;
54145;SDS011;65909;49.422;7.738;2023-02-15T06:15:01;71.15;;;21.70;;
54145;SDS011;65909;49.422;7.738;2023-02-15T06:17:27;61.92;;;22.73;;
54145;SDS011;65909;49.422;7.738;2023-02-15T06:19:52;55.05;;;17.73;;
54145;SDS011;65909;49.422;7.738;2023-02-15T06:22:18;54.47;;;19.25;;
54145;SDS011;65909;49.422;7.738;2023-02-15T06:24:43;62.05;;;21.83;;
54145;SDS011;65909;49.422;7.738;2023-02-15T06:27:09;69.50;;;22.38;;
54145;SDS011;65909;49.422;7.738;2023-02-15T06:29:35;65.65;;;22.08;;
54145;SDS011;65909;49.422;7.738;2023-02-15T06:32:00;61.78;;;24.55;;
54145;SDS011;65909;49.422;7.738;2023-02-15T06:34:26;68.82;;;20.50;;
54145;SDS011;65909;49.422;7.738;2023-02-15T06:36:51;75.75;;;21.90;;
54145;SDS011;65909;49.422;7.738;2023-02-15T06:39:17;66.93;;;21.95;;
54145;SDS011;65909;49.422;7.738;2023-02-15T06:41:42;79.82;;;23.45;;
54145;SDS011;65909;49.422;7.738;2023-02-15T06:44:07;58.65;;;20.10;;
54145;SDS011;65909;49.422;7.738;2023-02-15T06:46:33;67.68;;;21.80;;
54145;SDS011;65909;49.422;7.738;2023-02-15T06:48:58;71.30;;;22.55;;
54145;SDS011;65909;49.422;7.738;2023-02-15T06:51:23;72.22;;;21.45;;
54145;SDS011;65909;49.422;7.738;2023-02-15T06:53:49;65.90;;;19.98;;
54145;SDS011;65909;49.422;7.738;2023-02-15T06:56:14;55.85;;;19.17;;
54145;SDS011;65909;49.422;7.738;2023-02-15T06:58:40;73.22;;;23.15;;
54145;SDS011;65909;49.422;7.738;2023-02-15T07:01:07;65.43;;;21.08;;
54145;SDS011;65909;49.422;7.738;2023-02-15T07:03:33;77.25;;;26.25;;
54145;SDS011;65909;49.422;7.738;2023-02-15T07:06:00;66.30;;;22.55;;
54145;SDS011;65909;49.422;7.738;2023-02-15T07:08:27;76.03;;;25.33;;
54145;SDS011;65909;49.422;7.738;2023-02-15T07:10:54;72.55;;;23.60;;
54145;SDS011;65909;49.422;7.738;2023-02-15T07:13:40;73.43;;;23.90;;
54145;SDS011;65909;49.422;7.738;2023-02-15T07:16:07;79.10;;;24.63;;
54145;SDS011;65909;49.422;7.738;2023-02-15T07:18:33;71.25;;;23.30;;
54145;SDS011;65909;49.422;7.738;2023-02-15T07:20:58;72.90;;;21.90;;
54145;SDS011;65909;49.422;7.738;2023-02-15T07:23:23;82.53;;;26.40;;
54145;SDS011;65909;49.422;7.738;2023-02-15T07:25:55;81.55;;;25.65;;
54145;SDS011;65909;49.422;7.738;2023-02-15T07:28:22;61.67;;;22.67;;
54145;SDS011;65909;49.422;7.738;2023-02-15T07:30:47;70.90;;;20.83;;
54145;SDS011;65909;49.422;7.738;2023-02-15T07:33:13;72.72;;;25.30;;
54145;SDS011;65909;49.422;7.738;2023-02-15T07:35:55;63.67;;;23.92;;
54145;SDS011;65909;49.422;7.738;2023-02-15T07:38:23;69.57;;;22.40;;
54145;SDS011;65909;49.422;7.738;2023-02-15T07:40:49;83.72;;;24.98;;
54145;SDS011;65909;49.422;7.738;2023-02-15T07:43:14;77.93;;;25.48;;
54145;SDS011;65909;49.422;7.738;2023-02-15T07:45:40;63.25;;;23.23;;
54145;SDS011;65909;49.422;7.738;2023-02-15T07:48:05;84.28;;;27.15;;
54145;SDS011;65909;49.422;7.738;2023-02-15T07:50:32;58.22;;;21.90;;
54145;SDS011;65909;49.422;7.738;2023-02-15T07:52:58;61.58;;;20.38;;
54145;SDS011;65909;49.422;7.738;2023-02-15T07:55:23;66.95;;;23.50;;
54145;SDS011;65909;49.422;7.738;2023-02-15T07:57:49;56.72;;;22.60;;
54145;SDS011;65909;49.422;7.738;2023-02-15T08:00:16;61.00;;;21.50;;
54145;SDS011;65909;49.422;7.738;2023-02-15T08:02:49;68.15;;;22.95;;
54145;SDS011;65909;49.422;7.738;2023-02-15T08:05:35;61.50;;;23.90;;
54145;SDS011;65909;49.422;7.738;2023-02-15T08:08:01;58.72;;;21.60;;
54145;SDS011;65909;49.422;7.738;2023-02-15T08:10:27;65.70;;;21.98;;
54145;SDS011;65909;49.422;7.738;2023-02-15T08:13:12;67.88;;;22.83;;
54145;SDS011;65909;49.422;7.738;2023-02-15T08:15:37;57.70;;;17.98;;
54145;SDS011;65909;49.422;7.738;2023-02-15T08:18:03;62.45;;;21.33;;
54145;SDS011;65909;49.422;7.738;2023-02-15T08:20:28;67.50;;;22.40;;
54145;SDS011;65909;49.422;7.738;2023-02-15T08:22:54;60.42;;;19.25;;
54145;SDS011;65909;49.422;7.738;2023-02-15T08:25:19;77.70;;;23.63;;
54145;SDS011;65909;49.422;7.738;2023-02-15T08:27:44;76.85;;;26.50;;
54145;SDS011;65909;49.422;7.738;2023-02-15T08:30:10;54.65;;;19.90;;
54145;SDS011;65909;49.422;7.738;2023-02-15T08:32:36;71.18;;;23.17;;
54145;SDS011;65909;49.422;7.738;2023-02-15T08:35:01;73.70;;;21.30;;
54145;SDS011;65909;49.422;7.738;2023-02-15T08:37:27;78.40;;;25.60;;
54145;SDS011;65909;49.422;7.738;2023-02-15T08:39:52;71.18;;;22.42;;
54145;SDS011;65909;49.422;7.738;2023-02-15T08:42:18;80.85;;;25.83;;
54145;SDS011;65909;49.422;7.738;2023-02-15T08:44:45;75.20;;;24.20;;
54145;SDS011;65909;49.422;7.738;2023-02-15T08:47:11;72.03;;;25.10;;
54145;SDS011;65909;49.422;7.738;2023-02-15T08:49:36;59.13;;;22.30;;
54145;SDS011;65909;49.422;7.738;2023-02-15T08:52:02;66.10;;;23.48;;
54145;SDS011;65909;49.422;7.738;2023-02-15T08:54:27;61.53;;;21.73;;
54145;SDS011;65909;49.422;7.738;2023-02-15T08:56:53;73.28;;;23.27;;
54145;SDS011;65909;49.422;7.738;2023-02-15T08:59:19;57.42;;;19.50;;
54145;SDS011;65909;49.422;7.738;2023-02-15T09:01:46;65.25;;;23.42;;
54145;SDS011;65909;49.422;7.738;2023-02-15T09:04:13;52.53;;;18.27;;
54145;SDS011;65909;49.422;7.738;2023-02-15T09:06:41;56.97;;;21.20;;
54145;SDS011;65909;49.422;7.738;2023-02-15T09:09:09;58.78;;;18.38;;
54145;SDS011;65909;49.422;7.738;2023-02-15T09:11:36;54.35;;;21.13;;
54145;SDS011;65909;49.422;7.738;2023-02-15T09:14:07;52.88;;;19.98;;
54145;SDS011;65909;49.422;7.738;2023-02-15T09:16:40;57.78;;;21.15;;
54145;SDS011;65909;49.422;7.738;2023-02-15T09:19:07;57.05;;;18.83;;
54145;SDS011;65909;49.422;7.738;2023-02-15T09:21:34;57.78;;;21.25;;
54145;SDS011;65909;49.422;7.738;2023-02-15T09:24:05;50.28;;;20.00;;
54145;SDS011;65909;49.422;7.738;2023-02-15T09:26:36;54.58;;;22.30;;
54145;SDS011;65909;49.422;7.738;2023-02-15T09:29:05;45.55;;;16.90;;
54145;SDS011;65909;49.422;7.738;2023-02-15T09:31:31;44.60;;;17.50;;
54145;SDS011;65909;49.422;7.738;2023-02-15T09:33:59;51.03;;;19.85;;
54145;SDS011;65909;49.422;7.738;2023-02-15T09:36:27;41.60;;;16.65;;
54145;SDS011;65909;49.422;7.738;2023-02-15T09:38:55;38.80;;;16.95;;
54145;SDS011;65909;49.422;7.738;2023-02-15T09:41:41;44.28;;;17.98;;
54145;SDS011;65909;49.422;7.738;2023-02-15T09:47:21;43.58;;;18.42;;
54145;SDS011;65909;49.422;7.738;2023-02-15T09:49:54;35.85;;;14.95;;
54145;SDS011;65909;49.422;7.738;2023-02-15T09:57:35;43.50;;;16.55;;
54145;SDS011;65909;49.422;7.738;2023-02-15T10:00:18;44.60;;;18.85;;
54145;SDS011;65909;49.422;7.738;2023-02-15T10:03:03;43.03;;;18.70;;
54145;SDS011;65909;49.422;7.738;2023-02-15T10:11:33;38.58;;;17.58;;
54145;SDS011;65909;49.422;7.738;2023-02-15T10:14:36;45.75;;;17.88;;
54145;SDS011;65909;49.422;7.738;2023-02-15T10:22:52;38.80;;;14.65;;
54145;SDS011;65909;49.422;7.738;2023-02-15T10:28:17;35.00;;;15.27;;
54145;SDS011;65909;49.422;7.738;2023-02-15T10:30:49;34.63;;;16.15;;
54145;SDS011;65909;49.422;7.738;2023-02-15T10:33:20;31.30;;;15.63;;
54145;SDS011;65909;49.422;7.738;2023-02-15T10:38:53;21.70;;;10.20;;
54145;SDS011;65909;49.422;7.738;2023-02-15T10:41:42;28.70;;;13.32;;
54145;SDS011;65909;49.422;7.738;2023-02-15T10:49:49;27.55;;;13.32;;
54145;SDS011;65909;49.422;7.738;2023-02-15T11:06:39;25.00;;;13.05;;
54145;SDS011;65909;49.422;7.738;2023-02-15T11:09:11;26.00;;;11.85;;
54145;SDS011;65909;49.422;7.738;2023-02-15T11:11:40;28.55;;;12.60;;
54145;SDS011;65909;49.422;7.738;2023-02-15T11:14:13;29.27;;;14.45;;
54145;SDS011;65909;49.422;7.738;2023-02-15T11:16:44;37.67;;;19.52;;
54145;SDS011;65909;49.422;7.738;2023-02-15T11:19:15;41.38;;;17.08;;
54145;SDS011;65909;49.422;7.738;2023-02-15T11:21:49;35.85;;;17.10;;
54145;SDS011;65909;49.422;7.738;2023-02-15T11:24:19;29.95;;;14.48;;
54145;SDS011;65909;49.422;7.738;2023-02-15T11:27:03;32.90;;;16.50;;
54145;SDS011;65909;49.422;7.738;2023-02-15T11:29:40;29.52;;;14.43;;
54145;SDS011;65909;49.422;7.738;2023-02-15T11:37:46;44.63;;;19.58;;
54145;SDS011;65909;49.422;7.738;2023-02-15T11:42:47;40.22;;;18.63;;
54145;SDS011;65909;49.422;7.738;2023-02-15T11:45:18;39.33;;;20.15;;
54145;SDS011;65909;49.422;7.738;2023-02-15T11:47:48;42.90;;;18.55;;
54145;SDS011;65909;49.422;7.738;2023-02-15T11:50:22;43.03;;;22.50;;
54145;SDS011;65909;49.422;7.738;2023-02-15T11:52:50;42.83;;;16.27;;
54145;SDS011;65909;49.422;7.738;2023-02-15T11:55:19;42.10;;;19.30;;
54145;SDS011;65909;49.422;7.738;2023-02-15T12:00:40;42.47;;;18.27;;
54145;SDS011;65909;49.422;7.738;2023-02-15T12:03:15;42.17;;;18.55;;
54145;SDS011;65909;49.422;7.738;2023-02-15T12:05:46;42.53;;;16.58;;
54145;SDS011;65909;49.422;7.738;2023-02-15T12:08:19;45.50;;;17.70;;
54145;SDS011;65909;49.422;7.738;2023-02-15T12:11:06;40.30;;;18.83;;
54145;SDS011;65909;49.422;7.738;2023-02-15T12:16:32;40.05;;;15.80;;
54145;SDS011;65909;49.422;7.738;2023-02-15T12:19:37;32.53;;;16.42;;
54145;SDS011;65909;49.422;7.738;2023-02-15T12:22:05;34.95;;;16.52;;
54145;SDS011;65909;49.422;7.738;2023-02-15T12:24:46;35.72;;;16.83;;
54145;SDS011;65909;49.422;7.738;2023-02-15T12:27:17;41.20;;;19.30;;
54145;SDS011;65909;49.422;7.738;2023-02-15T12:32:35;40.25;;;16.58;;
54145;SDS011;65909;49.422;7.738;2023-02-15T12:35:21;35.17;;;17.33;;
54145;SDS011;65909;49.422;7.738;2023-02-15T12:37:54;41.80;;;18.60;;
54145;SDS011;65909;49.422;7.738;2023-02-15T12:40:25;44.30;;;18.92;;
54145;SDS011;65909;49.422;7.738;2023-02-15T12:42:53;36.90;;;16.75;;
54145;SDS011;65909;49.422;7.738;2023-02-15T12:45:26;43.25;;;17.55;;
54145;SDS011;65909;49.422;7.738;2023-02-15T12:48:35;48.10;;;18.50;;
54145;SDS011;65909;49.422;7.738;2023-02-15T12:50:46;38.65;;;17.25;;
54145;SDS011;65909;49.422;7.738;2023-02-15T12:55:56;48.90;;;21.95;;
54145;SDS011;65909;49.422;7.738;2023-02-15T12:58:25;45.20;;;19.35;;
54145;SDS011;65909;49.422;7.738;2023-02-15T13:01:02;32.75;;;14.88;;
54145;SDS011;65909;49.422;7.738;2023-02-15T13:03:33;56.78;;;20.88;;
54145;SDS011;65909;49.422;7.738;2023-02-15T13:05:59;41.78;;;17.80;;
54145;SDS011;65909;49.422;7.738;2023-02-15T13:08:27;41.67;;;19.27;;
54145;SDS011;65909;49.422;7.738;2023-02-15T13:13:31;48.33;;;20.13;;
54145;SDS011;65909;49.422;7.738;2023-02-15T13:16:03;47.47;;;19.02;;
54145;SDS011;65909;49.422;7.738;2023-02-15T13:18:37;49.28;;;21.88;;
54145;SDS011;65909;49.422;7.738;2023-02-15T13:21:09;44.65;;;19.30;;
54145;SDS011;65909;49.422;7.738;2023-02-15T13:23:42;50.75;;;20.55;;
54145;SDS011;65909;49.422;7.738;2023-02-15T13:26:13;42.30;;;16.17;;
54145;SDS011;65909;49.422;7.738;2023-02-15T13:28:47;46.53;;;18.38;;
54145;SDS011;65909;49.422;7.738;2023-02-15T13:31:20;44.45;;;19.67;;
54145;SDS011;65909;49.422;7.738;2023-02-15T13:33:53;42.53;;;17.05;;
54145;SDS011;65909;49.422;7.738;2023-02-15T13:47:34;55.72;;;24.35;;
54145;SDS011;65909;49.422;7.738;2023-02-15T13:50:06;54.40;;;21.50;;
54145;SDS011;65909;49.422;7.738;2023-02-15T13:58:04;63.05;;;22.98;;
54145;SDS011;65909;49.422;7.738;2023-02-15T14:06:25;52.97;;;19.67;;
54145;SDS011;65909;49.422;7.738;2023-02-15T14:11:39;43.70;;;18.83;;
54145;SDS011;65909;49.422;7.738;2023-02-15T14:17:06;59.50;;;23.40;;
54145;SDS011;65909;49.422;7.738;2023-02-15T14:19:57;57.73;;;22.83;;
54145;SDS011;65909;49.422;7.738;2023-02-15T14:22:44;54.05;;;21.45;;
54145;SDS011;65909;49.422;7.738;2023-02-15T14:25:27;48.38;;;20.23;;
54145;SDS011;65909;49.422;7.738;2023-02-15T14:30:56;49.63;;;20.50;;
54145;SDS011;65909;49.422;7.738;2023-02-15T14:33:29;47.85;;;19.55;;
54145;SDS011;65909;49.422;7.738;2023-02-15T14:35:58;58.45;;;23.75;;
54145;SDS011;65909;49.422;7.738;2023-02-15T14:41:18;55.05;;;23.48;;
54145;SDS011;65909;49.422;7.738;2023-02-15T14:49:03;56.78;;;23.10;;
54145;SDS011;65909;49.422;7.738;2023-02-15T14:56:47;60.13;;;24.10;;
54145;SDS011;65909;49.422;7.738;2023-02-15T15:04:38;57.97;;;21.92;;
54145;SDS011;65909;49.422;7.738;2023-02-15T15:07:09;62.10;;;24.88;;
54145;SDS011;65909;49.422;7.738;2023-02-15T15:09:44;61.20;;;24.05;;
54145;SDS011;65909;49.422;7.738;2023-02-15T15:14:48;56.88;;;22.27;;
54145;SDS011;65909;49.422;7.738;2023-02-15T15:22:47;62.55;;;23.63;;
54145;SDS011;65909;49.422;7.738;2023-02-15T15:27:58;61.80;;;23.15;;
54145;SDS011;65909;49.422;7.738;2023-02-15T15:35:36;66.53;;;25.88;;
54145;SDS011;65909;49.422;7.738;2023-02-15T15:49:34;61.13;;;22.20;;
54145;SDS011;65909;49.422;7.738;2023-02-15T15:52:08;67.78;;;25.85;;
54145;SDS011;65909;49.422;7.738;2023-02-15T15:54:40;60.90;;;22.67;;
54145;SDS011;65909;49.422;7.738;2023-02-15T16:02:18;64.40;;;27.65;;
54145;SDS011;65909;49.422;7.738;2023-02-15T16:04:44;68.40;;;23.75;;
54145;SDS011;65909;49.422;7.738;2023-02-15T16:07:23;59.00;;;25.27;;
54145;SDS011;65909;49.422;7.738;2023-02-15T16:09:53;64.45;;;23.80;;
54145;SDS011;65909;49.422;7.738;2023-02-15T16:12:20;69.03;;;24.25;;
54145;SDS011;65909;49.422;7.738;2023-02-15T16:14:46;71.00;;;28.75;;
54145;SDS011;65909;49.422;7.738;2023-02-15T16:17:20;71.30;;;26.02;;
54145;SDS011;65909;49.422;7.738;2023-02-15T16:19:48;60.78;;;22.77;;
54145;SDS011;65909;49.422;7.738;2023-02-15T16:22:19;69.20;;;26.08;;
54145;SDS011;65909;49.422;7.738;2023-02-15T16:27:48;67.22;;;29.17;;
54145;SDS011;65909;49.422;7.738;2023-02-15T16:35:35;64.18;;;24.13;;
54145;SDS011;65909;49.422;7.738;2023-02-15T16:38:02;69.00;;;26.50;;
54145;SDS011;65909;49.422;7.738;2023-02-15T16:43:16;74.40;;;28.35;;
54145;SDS011;65909;49.422;7.738;2023-02-15T16:45:46;76.97;;;28.80;;
54145;SDS011;65909;49.422;7.738;2023-02-15T16:48:13;76.10;;;26.55;;
54145;SDS011;65909;49.422;7.738;2023-02-15T16:50:50;80.60;;;29.85;;
54145;SDS011;65909;49.422;7.738;2023-02-15T16:53:20;79.93;;;26.48;;
54145;SDS011;65909;49.422;7.738;2023-02-15T16:56:02;67.90;;;26.52;;
54145;SDS011;65909;49.422;7.738;2023-02-15T16:58:31;78.13;;;27.88;;
54145;SDS011;65909;49.422;7.738;2023-02-15T17:01:02;78.28;;;33.35;;
54145;SDS011;65909;49.422;7.738;2023-02-15T17:03:32;75.75;;;31.50;;
54145;SDS011;65909;49.422;7.738;2023-02-15T17:05:58;64.53;;;24.70;;
54145;SDS011;65909;49.422;7.738;2023-02-15T17:08:32;76.82;;;30.05;;
54145;SDS011;65909;49.422;7.738;2023-02-15T17:13:24;82.68;;;29.25;;
54145;SDS011;65909;49.422;7.738;2023-02-15T17:18:33;82.10;;;29.45;;
54145;SDS011;65909;49.422;7.738;2023-02-15T17:21:11;75.50;;;27.00;;
54145;SDS011;65909;49.422;7.738;2023-02-15T17:23:43;86.72;;;28.00;;
54145;SDS011;65909;49.422;7.738;2023-02-15T17:26:12;88.18;;;30.95;;
54145;SDS011;65909;49.422;7.738;2023-02-15T17:28:46;92.70;;;34.13;;
54145;SDS011;65909;49.422;7.738;2023-02-15T17:31:18;103.18;;;33.63;;
54145;SDS011;65909;49.422;7.738;2023-02-15T17:33:45;97.68;;;34.25;;
54145;SDS011;65909;49.422;7.738;2023-02-15T17:36:12;102.07;;;37.55;;
54145;SDS011;65909;49.422;7.738;2023-02-15T17:38:39;92.20;;;32.03;;
54145;SDS011;65909;49.422;7.738;2023-02-15T17:43:49;99.10;;;34.90;;
54145;SDS011;65909;49.422;7.738;2023-02-15T17:46:15;91.18;;;33.88;;